sensor_id;sensor_type;location;lat;lon;timestamp;P1;durP1;ratioP1;P2;durP2;ratioP2
9034;SDS011;4552;43.422;24.592;2023-12-29T00:02:22;22.90;;;10.17;;
9034;SDS011;4552;43.422;24.592;2023-12-29T00:04:51;15.93;;;10.00;;
9034;SDS011;4552;43.422;24.592;2023-12-29T00:07:21;18.60;;;11.07;;
9034;SDS011;4552;43.422;24.592;2023-12-29T00:09:48;21.00;;;10.97;;
9034;SDS011;4552;43.422;24.592;2023-12-29T00:12:15;20.70;;;10.20;;
9034;SDS011;4552;43.422;24.592;2023-12-29T00:14:42;18.40;;;10.33;;
9034;SDS011;4552;43.422;24.592;2023-12-29T00:17:09;16.93;;;10.23;;
9034;SDS011;4552;43.422;24.592;2023-12-29T00:19:36;15.90;;;9.40;;
9034;SDS011;4552;43.422;24.592;2023-12-29T00:42:15;16.83;;;9.57;;
9034;SDS011;4552;43.422;24.592;2023-12-29T00:44:42;19.47;;;9.43;;
9034;SDS011;4552;43.422;24.592;2023-12-29T00:47:09;16.43;;;9.40;;
9034;SDS011;4552;43.422;24.592;2023-12-29T00:49:38;16.87;;;9.40;;
9034;SDS011;4552;43.422;24.592;2023-12-29T01:18:45;13.90;;;9.20;;
9034;SDS011;4552;43.422;24.592;2023-12-29T01:21:12;14.53;;;8.53;;
9034;SDS011;4552;43.422;24.592;2023-12-29T01:23:39;15.13;;;8.97;;
9034;SDS011;4552;43.422;24.592;2023-12-29T01:26:06;12.07;;;7.53;;
9034;SDS011;4552;43.422;24.592;2023-12-29T01:28:34;22.13;;;10.27;;
9034;SDS011;4552;43.422;24.592;2023-12-29T01:31:01;13.83;;;9.07;;
9034;SDS011;4552;43.422;24.592;2023-12-29T01:33:29;13.23;;;8.03;;
9034;SDS011;4552;43.422;24.592;2023-12-29T01:39:33;18.20;;;7.97;;
9034;SDS011;4552;43.422;24.592;2023-12-29T01:42:01;14.87;;;8.03;;
9034;SDS011;4552;43.422;24.592;2023-12-29T01:44:28;14.77;;;8.47;;
9034;SDS011;4552;43.422;24.592;2023-12-29T01:46:55;15.50;;;8.83;;
9034;SDS011;4552;43.422;24.592;2023-12-29T01:49:27;11.50;;;7.67;;
9034;SDS011;4552;43.422;24.592;2023-12-29T01:51:57;14.20;;;8.10;;
9034;SDS011;4552;43.422;24.592;2023-12-29T01:54:26;13.40;;;7.47;;
9034;SDS011;4552;43.422;24.592;2023-12-29T01:56:57;14.70;;;7.40;;
9034;SDS011;4552;43.422;24.592;2023-12-29T01:59:27;14.23;;;7.27;;
9034;SDS011;4552;43.422;24.592;2023-12-29T02:01:56;15.57;;;8.47;;
9034;SDS011;4552;43.422;24.592;2023-12-29T02:04:24;14.00;;;7.97;;
9034;SDS011;4552;43.422;24.592;2023-12-29T02:06:53;14.27;;;7.37;;
9034;SDS011;4552;43.422;24.592;2023-12-29T02:09:20;14.40;;;7.33;;
9034;SDS011;4552;43.422;24.592;2023-12-29T02:11:50;11.30;;;6.70;;
9034;SDS011;4552;43.422;24.592;2023-12-29T02:14:17;14.10;;;7.27;;
9034;SDS011;4552;43.422;24.592;2023-12-29T02:16:47;12.17;;;7.47;;
9034;SDS011;4552;43.422;24.592;2023-12-29T02:19:25;13.30;;;7.13;;
9034;SDS011;4552;43.422;24.592;2023-12-29T02:59:10;16.50;;;8.50;;
9034;SDS011;4552;43.422;24.592;2023-12-29T03:01:37;13.63;;;8.00;;
9034;SDS011;4552;43.422;24.592;2023-12-29T03:04:05;14.83;;;7.97;;
9034;SDS011;4552;43.422;24.592;2023-12-29T03:06:33;13.97;;;7.50;;
9034;SDS011;4552;43.422;24.592;2023-12-29T03:08:59;12.17;;;7.33;;
9034;SDS011;4552;43.422;24.592;2023-12-29T03:11:26;8.80;;;6.73;;
9034;SDS011;4552;43.422;24.592;2023-12-29T03:13:57;12.30;;;7.20;;
9034;SDS011;4552;43.422;24.592;2023-12-29T03:16:25;13.10;;;7.50;;
9034;SDS011;4552;43.422;24.592;2023-12-29T03:18:52;11.53;;;7.77;;
9034;SDS011;4552;43.422;24.592;2023-12-29T03:34:27;13.00;;;7.47;;
9034;SDS011;4552;43.422;24.592;2023-12-29T03:36:54;13.97;;;7.77;;
9034;SDS011;4552;43.422;24.592;2023-12-29T03:39:21;10.80;;;7.77;;
9034;SDS011;4552;43.422;24.592;2023-12-29T03:41:48;17.53;;;7.80;;
9034;SDS011;4552;43.422;24.592;2023-12-29T03:44:15;15.13;;;7.70;;
9034;SDS011;4552;43.422;24.592;2023-12-29T03:46:43;13.60;;;7.90;;
9034;SDS011;4552;43.422;24.592;2023-12-29T03:49:16;11.83;;;7.37;;
9034;SDS011;4552;43.422;24.592;2023-12-29T03:51:43;14.13;;;7.93;;
9034;SDS011;4552;43.422;24.592;2023-12-29T03:54:10;12.30;;;7.90;;
9034;SDS011;4552;43.422;24.592;2023-12-29T03:56:37;18.37;;;9.90;;
9034;SDS011;4552;43.422;24.592;2023-12-29T03:59:04;14.57;;;8.23;;
9034;SDS011;4552;43.422;24.592;2023-12-29T04:01:33;13.17;;;8.10;;
9034;SDS011;4552;43.422;24.592;2023-12-29T04:04:00;15.90;;;8.63;;
9034;SDS011;4552;43.422;24.592;2023-12-29T04:06:28;12.30;;;7.37;;
9034;SDS011;4552;43.422;24.592;2023-12-29T04:08:57;16.00;;;7.97;;
9034;SDS011;4552;43.422;24.592;2023-12-29T04:11:24;14.70;;;8.90;;
9034;SDS011;4552;43.422;24.592;2023-12-29T04:13:54;13.50;;;8.70;;
9034;SDS011;4552;43.422;24.592;2023-12-29T04:16:20;17.03;;;8.03;;
9034;SDS011;4552;43.422;24.592;2023-12-29T04:18:48;15.57;;;8.33;;
9034;SDS011;4552;43.422;24.592;2023-12-29T04:21:15;14.27;;;8.33;;
9034;SDS011;4552;43.422;24.592;2023-12-29T04:23:43;14.97;;;8.90;;
9034;SDS011;4552;43.422;24.592;2023-12-29T04:26:10;14.47;;;8.30;;
9034;SDS011;4552;43.422;24.592;2023-12-29T04:28:37;12.50;;;7.70;;
9034;SDS011;4552;43.422;24.592;2023-12-29T04:31:04;14.50;;;8.50;;
9034;SDS011;4552;43.422;24.592;2023-12-29T04:33:31;17.43;;;8.37;;
9034;SDS011;4552;43.422;24.592;2023-12-29T04:42:44;17.13;;;8.17;;
9034;SDS011;4552;43.422;24.592;2023-12-29T04:45:11;14.53;;;8.07;;
9034;SDS011;4552;43.422;24.592;2023-12-29T04:47:38;13.50;;;7.70;;
9034;SDS011;4552;43.422;24.592;2023-12-29T04:50:06;11.80;;;7.60;;
9034;SDS011;4552;43.422;24.592;2023-12-29T04:52:33;14.43;;;7.53;;
9034;SDS011;4552;43.422;24.592;2023-12-29T04:55:01;13.13;;;7.57;;
9034;SDS011;4552;43.422;24.592;2023-12-29T04:57:27;13.33;;;7.57;;
9034;SDS011;4552;43.422;24.592;2023-12-29T04:59:58;12.73;;;7.87;;
9034;SDS011;4552;43.422;24.592;2023-12-29T05:02:25;13.13;;;8.13;;
9034;SDS011;4552;43.422;24.592;2023-12-29T05:04:51;12.77;;;7.13;;
9034;SDS011;4552;43.422;24.592;2023-12-29T05:34:33;13.10;;;7.50;;
9034;SDS011;4552;43.422;24.592;2023-12-29T05:37:00;25.00;;;11.53;;
9034;SDS011;4552;43.422;24.592;2023-12-29T05:39:28;21.90;;;10.87;;
9034;SDS011;4552;43.422;24.592;2023-12-29T05:41:55;16.13;;;9.40;;
9034;SDS011;4552;43.422;24.592;2023-12-29T05:44:23;13.07;;;8.17;;
9034;SDS011;4552;43.422;24.592;2023-12-29T05:46:50;14.13;;;8.53;;
9034;SDS011;4552;43.422;24.592;2023-12-29T05:49:17;14.57;;;7.80;;
9034;SDS011;4552;43.422;24.592;2023-12-29T05:51:45;11.53;;;7.10;;
9034;SDS011;4552;43.422;24.592;2023-12-29T05:54:12;20.03;;;10.67;;
9034;SDS011;4552;43.422;24.592;2023-12-29T05:56:40;13.53;;;7.33;;
9034;SDS011;4552;43.422;24.592;2023-12-29T05:59:07;19.27;;;10.87;;
9034;SDS011;4552;43.422;24.592;2023-12-29T06:01:34;12.80;;;7.43;;
9034;SDS011;4552;43.422;24.592;2023-12-29T06:04:01;13.63;;;8.50;;
9034;SDS011;4552;43.422;24.592;2023-12-29T06:16:42;16.77;;;9.07;;
9034;SDS011;4552;43.422;24.592;2023-12-29T06:19:09;15.53;;;8.63;;
9034;SDS011;4552;43.422;24.592;2023-12-29T06:21:40;16.97;;;10.13;;
9034;SDS011;4552;43.422;24.592;2023-12-29T06:24:08;15.73;;;8.37;;
9034;SDS011;4552;43.422;24.592;2023-12-29T06:26:49;13.63;;;8.20;;
9034;SDS011;4552;43.422;24.592;2023-12-29T06:29:16;19.53;;;11.47;;
9034;SDS011;4552;43.422;24.592;2023-12-29T06:31:45;14.00;;;8.93;;
9034;SDS011;4552;43.422;24.592;2023-12-29T06:34:12;15.00;;;9.00;;
9034;SDS011;4552;43.422;24.592;2023-12-29T06:36:39;21.70;;;11.13;;
9034;SDS011;4552;43.422;24.592;2023-12-29T06:39:06;19.13;;;10.13;;
9034;SDS011;4552;43.422;24.592;2023-12-29T06:41:34;20.23;;;10.37;;
9034;SDS011;4552;43.422;24.592;2023-12-29T06:44:01;14.37;;;9.13;;
9034;SDS011;4552;43.422;24.592;2023-12-29T06:46:28;25.77;;;11.23;;
9034;SDS011;4552;43.422;24.592;2023-12-29T06:48:56;15.47;;;9.83;;
9034;SDS011;4552;43.422;24.592;2023-12-29T06:51:23;16.67;;;9.73;;
9034;SDS011;4552;43.422;24.592;2023-12-29T06:53:50;16.67;;;10.73;;
9034;SDS011;4552;43.422;24.592;2023-12-29T06:56:17;32.03;;;14.90;;
9034;SDS011;4552;43.422;24.592;2023-12-29T06:58:45;19.33;;;11.30;;
9034;SDS011;4552;43.422;24.592;2023-12-29T07:01:12;26.03;;;13.87;;
9034;SDS011;4552;43.422;24.592;2023-12-29T07:03:41;29.17;;;13.47;;
9034;SDS011;4552;43.422;24.592;2023-12-29T07:06:09;23.40;;;10.23;;
9034;SDS011;4552;43.422;24.592;2023-12-29T07:08:36;25.00;;;12.63;;
9034;SDS011;4552;43.422;24.592;2023-12-29T07:11:04;24.60;;;11.97;;
9034;SDS011;4552;43.422;24.592;2023-12-29T07:13:31;19.87;;;11.77;;
9034;SDS011;4552;43.422;24.592;2023-12-29T07:15:58;28.53;;;14.17;;
9034;SDS011;4552;43.422;24.592;2023-12-29T07:18:25;37.70;;;18.13;;
9034;SDS011;4552;43.422;24.592;2023-12-29T07:47:48;27.03;;;15.33;;
9034;SDS011;4552;43.422;24.592;2023-12-29T08:26:45;5.30;;;3.33;;
9034;SDS011;4552;43.422;24.592;2023-12-29T08:29:13;5.07;;;3.67;;
9034;SDS011;4552;43.422;24.592;2023-12-29T08:31:41;4.67;;;3.47;;
9034;SDS011;4552;43.422;24.592;2023-12-29T08:34:08;4.93;;;3.20;;
9034;SDS011;4552;43.422;24.592;2023-12-29T08:36:35;5.73;;;3.50;;
9034;SDS011;4552;43.422;24.592;2023-12-29T08:39:03;5.63;;;3.40;;
9034;SDS011;4552;43.422;24.592;2023-12-29T08:41:30;4.77;;;3.17;;
9034;SDS011;4552;43.422;24.592;2023-12-29T08:43:58;5.23;;;3.33;;
9034;SDS011;4552;43.422;24.592;2023-12-29T08:46:25;5.70;;;3.37;;
9034;SDS011;4552;43.422;24.592;2023-12-29T08:48:52;6.33;;;3.30;;
9034;SDS011;4552;43.422;24.592;2023-12-29T08:51:19;5.43;;;3.30;;
9034;SDS011;4552;43.422;24.592;2023-12-29T08:53:46;5.57;;;3.23;;
9034;SDS011;4552;43.422;24.592;2023-12-29T08:56:13;6.10;;;3.47;;
9034;SDS011;4552;43.422;24.592;2023-12-29T08:58:40;4.93;;;2.93;;
9034;SDS011;4552;43.422;24.592;2023-12-29T09:01:09;5.43;;;3.30;;
9034;SDS011;4552;43.422;24.592;2023-12-29T09:03:36;5.67;;;2.80;;
9034;SDS011;4552;43.422;24.592;2023-12-29T09:06:04;4.53;;;3.20;;
9034;SDS011;4552;43.422;24.592;2023-12-29T09:08:33;4.87;;;3.40;;
9034;SDS011;4552;43.422;24.592;2023-12-29T09:11:00;6.77;;;3.77;;
9034;SDS011;4552;43.422;24.592;2023-12-29T09:13:28;6.53;;;3.63;;
9034;SDS011;4552;43.422;24.592;2023-12-29T09:15:55;4.13;;;3.20;;
9034;SDS011;4552;43.422;24.592;2023-12-29T09:18:24;6.53;;;3.30;;
9034;SDS011;4552;43.422;24.592;2023-12-29T09:20:51;4.40;;;3.37;;
9034;SDS011;4552;43.422;24.592;2023-12-29T09:23:20;6.23;;;3.30;;
9034;SDS011;4552;43.422;24.592;2023-12-29T09:25:48;4.60;;;3.20;;
9034;SDS011;4552;43.422;24.592;2023-12-29T09:28:15;3.60;;;3.17;;
9034;SDS011;4552;43.422;24.592;2023-12-29T09:30:42;5.90;;;3.50;;
9034;SDS011;4552;43.422;24.592;2023-12-29T09:49:05;6.13;;;3.47;;
9034;SDS011;4552;43.422;24.592;2023-12-29T11:02:28;3.70;;;2.53;;
9034;SDS011;4552;43.422;24.592;2023-12-29T11:05:07;3.80;;;2.70;;
9034;SDS011;4552;43.422;24.592;2023-12-29T11:27:54;3.67;;;2.77;;
9034;SDS011;4552;43.422;24.592;2023-12-29T11:30:29;5.87;;;3.17;;
9034;SDS011;4552;43.422;24.592;2023-12-29T11:32:57;5.30;;;2.70;;
9034;SDS011;4552;43.422;24.592;2023-12-29T11:35:36;4.27;;;2.80;;
9034;SDS011;4552;43.422;24.592;2023-12-29T11:38:11;3.50;;;2.73;;
9034;SDS011;4552;43.422;24.592;2023-12-29T11:40:58;4.03;;;2.57;;
9034;SDS011;4552;43.422;24.592;2023-12-29T11:43:33;5.70;;;3.37;;
9034;SDS011;4552;43.422;24.592;2023-12-29T11:46:00;3.73;;;3.00;;
9034;SDS011;4552;43.422;24.592;2023-12-29T12:05:01;3.07;;;2.60;;
9034;SDS011;4552;43.422;24.592;2023-12-29T12:10:37;4.70;;;2.30;;
9034;SDS011;4552;43.422;24.592;2023-12-29T12:13:06;2.63;;;2.43;;
9034;SDS011;4552;43.422;24.592;2023-12-29T12:15:38;2.53;;;2.33;;
9034;SDS011;4552;43.422;24.592;2023-12-29T12:18:10;2.90;;;2.63;;
9034;SDS011;4552;43.422;24.592;2023-12-29T12:20:40;4.80;;;2.53;;
9034;SDS011;4552;43.422;24.592;2023-12-29T12:23:10;3.77;;;2.47;;
9034;SDS011;4552;43.422;24.592;2023-12-29T12:25:38;3.73;;;2.40;;
9034;SDS011;4552;43.422;24.592;2023-12-29T12:28:10;3.37;;;2.60;;
9034;SDS011;4552;43.422;24.592;2023-12-29T12:30:42;2.40;;;2.20;;
9034;SDS011;4552;43.422;24.592;2023-12-29T12:33:13;5.93;;;2.30;;
9034;SDS011;4552;43.422;24.592;2023-12-29T12:35:42;3.50;;;2.57;;
9034;SDS011;4552;43.422;24.592;2023-12-29T12:38:12;4.70;;;2.87;;
9034;SDS011;4552;43.422;24.592;2023-12-29T12:40:45;3.53;;;2.63;;
9034;SDS011;4552;43.422;24.592;2023-12-29T12:43:14;5.83;;;2.90;;
9034;SDS011;4552;43.422;24.592;2023-12-29T12:45:42;4.13;;;2.67;;
9034;SDS011;4552;43.422;24.592;2023-12-29T12:48:18;3.53;;;2.63;;
9034;SDS011;4552;43.422;24.592;2023-12-29T12:50:52;3.77;;;2.77;;
9034;SDS011;4552;43.422;24.592;2023-12-29T13:20:18;3.67;;;2.50;;
9034;SDS011;4552;43.422;24.592;2023-12-29T13:22:46;3.50;;;2.60;;
9034;SDS011;4552;43.422;24.592;2023-12-29T13:25:18;3.17;;;2.37;;
9034;SDS011;4552;43.422;24.592;2023-12-29T13:27:47;2.83;;;2.40;;
9034;SDS011;4552;43.422;24.592;2023-12-29T13:30:15;3.53;;;2.77;;
9034;SDS011;4552;43.422;24.592;2023-12-29T13:32:48;5.70;;;3.00;;
9034;SDS011;4552;43.422;24.592;2023-12-29T13:35:17;4.07;;;2.67;;
9034;SDS011;4552;43.422;24.592;2023-12-29T14:45:38;10.63;;;3.40;;
9034;SDS011;4552;43.422;24.592;2023-12-29T14:48:06;5.60;;;3.40;;
9034;SDS011;4552;43.422;24.592;2023-12-29T14:50:34;4.30;;;2.80;;
9034;SDS011;4552;43.422;24.592;2023-12-29T15:34:04;7.07;;;3.03;;
9034;SDS011;4552;43.422;24.592;2023-12-29T16:10:11;5.70;;;3.90;;
9034;SDS011;4552;43.422;24.592;2023-12-29T16:12:38;5.03;;;3.20;;
9034;SDS011;4552;43.422;24.592;2023-12-29T16:15:05;6.70;;;3.53;;
9034;SDS011;4552;43.422;24.592;2023-12-29T16:17:35;6.33;;;2.83;;
9034;SDS011;4552;43.422;24.592;2023-12-29T16:20:02;5.13;;;2.90;;
9034;SDS011;4552;43.422;24.592;2023-12-29T16:22:30;4.22;;;2.95;;
9034;SDS011;4552;43.422;24.592;2023-12-29T16:24:57;7.87;;;5.23;;
9034;SDS011;4552;43.422;24.592;2023-12-29T16:27:26;4.23;;;3.17;;
9034;SDS011;4552;43.422;24.592;2023-12-29T16:29:53;5.88;;;4.50;;
9034;SDS011;4552;43.422;24.592;2023-12-29T16:32:20;5.17;;;4.07;;
9034;SDS011;4552;43.422;24.592;2023-12-29T16:34:49;4.82;;;3.40;;
9034;SDS011;4552;43.422;24.592;2023-12-29T16:37:16;7.70;;;4.23;;
9034;SDS011;4552;43.422;24.592;2023-12-29T16:39:43;11.93;;;8.80;;
9034;SDS011;4552;43.422;24.592;2023-12-29T16:42:10;5.38;;;3.70;;
9034;SDS011;4552;43.422;24.592;2023-12-29T16:44:42;12.00;;;8.13;;
9034;SDS011;4552;43.422;24.592;2023-12-29T16:47:09;5.87;;;3.43;;
9034;SDS011;4552;43.422;24.592;2023-12-29T16:49:36;6.67;;;4.33;;
9034;SDS011;4552;43.422;24.592;2023-12-29T16:58:47;5.60;;;3.90;;
9034;SDS011;4552;43.422;24.592;2023-12-29T17:01:18;5.03;;;3.17;;
9034;SDS011;4552;43.422;24.592;2023-12-29T17:03:47;4.87;;;2.87;;
9034;SDS011;4552;43.422;24.592;2023-12-29T17:06:27;3.20;;;2.87;;
9034;SDS011;4552;43.422;24.592;2023-12-29T17:08:54;6.03;;;3.90;;
9034;SDS011;4552;43.422;24.592;2023-12-29T17:11:24;3.97;;;3.03;;
9034;SDS011;4552;43.422;24.592;2023-12-29T17:13:51;3.83;;;2.80;;
9034;SDS011;4552;43.422;24.592;2023-12-29T17:16:21;3.70;;;2.77;;
9034;SDS011;4552;43.422;24.592;2023-12-29T17:18:55;3.80;;;3.00;;
9034;SDS011;4552;43.422;24.592;2023-12-29T17:22:03;4.87;;;3.30;;
9034;SDS011;4552;43.422;24.592;2023-12-29T17:51:53;6.27;;;4.43;;
9034;SDS011;4552;43.422;24.592;2023-12-29T17:54:23;8.03;;;3.87;;
9034;SDS011;4552;43.422;24.592;2023-12-29T17:56:51;17.37;;;9.63;;
9034;SDS011;4552;43.422;24.592;2023-12-29T17:59:18;9.00;;;6.80;;
9034;SDS011;4552;43.422;24.592;2023-12-29T18:01:47;9.90;;;7.47;;
9034;SDS011;4552;43.422;24.592;2023-12-29T18:04:15;7.07;;;5.40;;
9034;SDS011;4552;43.422;24.592;2023-12-29T19:51:02;4.83;;;3.73;;
9034;SDS011;4552;43.422;24.592;2023-12-29T19:53:29;8.77;;;4.70;;
9034;SDS011;4552;43.422;24.592;2023-12-29T19:55:56;9.70;;;4.73;;
9034;SDS011;4552;43.422;24.592;2023-12-29T19:58:23;8.60;;;4.87;;
9034;SDS011;4552;43.422;24.592;2023-12-29T20:00:51;8.07;;;4.83;;
9034;SDS011;4552;43.422;24.592;2023-12-29T20:03:19;5.50;;;3.87;;
9034;SDS011;4552;43.422;24.592;2023-12-29T20:05:46;5.00;;;3.63;;
9034;SDS011;4552;43.422;24.592;2023-12-29T20:08:14;3.87;;;3.10;;
9034;SDS011;4552;43.422;24.592;2023-12-29T20:10:43;4.07;;;3.53;;
9034;SDS011;4552;43.422;24.592;2023-12-29T20:13:10;3.67;;;3.20;;
9034;SDS011;4552;43.422;24.592;2023-12-29T20:15:37;3.50;;;3.20;;
9034;SDS011;4552;43.422;24.592;2023-12-29T20:18:04;3.27;;;2.90;;
9034;SDS011;4552;43.422;24.592;2023-12-29T20:20:32;5.67;;;3.43;;
9034;SDS011;4552;43.422;24.592;2023-12-29T20:22:59;4.57;;;3.37;;
9034;SDS011;4552;43.422;24.592;2023-12-29T20:25:27;4.67;;;3.27;;
9034;SDS011;4552;43.422;24.592;2023-12-29T20:27:54;3.50;;;3.00;;
9034;SDS011;4552;43.422;24.592;2023-12-29T20:30:21;5.03;;;3.30;;
9034;SDS011;4552;43.422;24.592;2023-12-29T20:32:48;3.50;;;3.20;;
9034;SDS011;4552;43.422;24.592;2023-12-29T20:35:18;6.80;;;3.40;;
9034;SDS011;4552;43.422;24.592;2023-12-29T20:37:45;5.23;;;3.50;;
9034;SDS011;4552;43.422;24.592;2023-12-29T20:40:13;5.80;;;4.10;;
9034;SDS011;4552;43.422;24.592;2023-12-29T20:45:53;9.67;;;5.10;;
9034;SDS011;4552;43.422;24.592;2023-12-29T20:48:20;7.70;;;5.00;;
9034;SDS011;4552;43.422;24.592;2023-12-29T20:51:11;8.97;;;5.33;;
9034;SDS011;4552;43.422;24.592;2023-12-29T21:03:50;10.47;;;5.50;;
9034;SDS011;4552;43.422;24.592;2023-12-29T21:06:18;11.57;;;6.77;;
9034;SDS011;4552;43.422;24.592;2023-12-29T21:08:47;8.67;;;6.00;;
9034;SDS011;4552;43.422;24.592;2023-12-29T21:11:18;9.03;;;6.13;;
9034;SDS011;4552;43.422;24.592;2023-12-29T21:13:46;10.77;;;6.20;;
9034;SDS011;4552;43.422;24.592;2023-12-29T21:16:13;8.90;;;6.33;;
9034;SDS011;4552;43.422;24.592;2023-12-29T21:18:45;11.23;;;7.53;;
9034;SDS011;4552;43.422;24.592;2023-12-29T21:21:15;10.13;;;6.23;;
9034;SDS011;4552;43.422;24.592;2023-12-29T21:23:42;12.77;;;7.73;;
9034;SDS011;4552;43.422;24.592;2023-12-29T21:26:16;12.73;;;8.80;;
9034;SDS011;4552;43.422;24.592;2023-12-29T21:28:45;12.20;;;7.73;;
9034;SDS011;4552;43.422;24.592;2023-12-29T21:31:13;13.20;;;7.80;;
9034;SDS011;4552;43.422;24.592;2023-12-29T21:33:45;9.87;;;6.80;;
9034;SDS011;4552;43.422;24.592;2023-12-29T21:36:23;11.87;;;6.50;;
9034;SDS011;4552;43.422;24.592;2023-12-29T21:45:38;12.00;;;7.80;;
9034;SDS011;4552;43.422;24.592;2023-12-29T21:48:05;12.17;;;7.50;;
9034;SDS011;4552;43.422;24.592;2023-12-29T21:50:32;14.40;;;8.63;;
9034;SDS011;4552;43.422;24.592;2023-12-29T21:53:01;13.27;;;8.10;;
9034;SDS011;4552;43.422;24.592;2023-12-29T21:55:28;15.30;;;8.60;;
9034;SDS011;4552;43.422;24.592;2023-12-29T21:57:56;13.20;;;8.07;;
9034;SDS011;4552;43.422;24.592;2023-12-29T22:00:25;11.30;;;7.83;;
9034;SDS011;4552;43.422;24.592;2023-12-29T22:02:53;9.70;;;7.10;;
9034;SDS011;4552;43.422;24.592;2023-12-29T22:05:21;13.27;;;7.97;;
9034;SDS011;4552;43.422;24.592;2023-12-29T22:34:46;8.83;;;5.97;;
9034;SDS011;4552;43.422;24.592;2023-12-29T23:00:57;5.93;;;4.73;;
9034;SDS011;4552;43.422;24.592;2023-12-29T23:03:24;6.07;;;4.73;;
9034;SDS011;4552;43.422;24.592;2023-12-29T23:05:56;7.13;;;4.17;;
9034;SDS011;4552;43.422;24.592;2023-12-29T23:17:39;8.30;;;6.10;;
9034;SDS011;4552;43.422;24.592;2023-12-29T23:20:06;12.37;;;6.37;;
9034;SDS011;4552;43.422;24.592;2023-12-29T23:32:40;8.63;;;5.47;;
9034;SDS011;4552;43.422;24.592;2023-12-29T23:35:07;13.93;;;6.13;;
9034;SDS011;4552;43.422;24.592;2023-12-29T23:44:21;9.17;;;5.50;;
9034;SDS011;4552;43.422;24.592;2023-12-29T23:46:47;8.23;;;5.57;;
9034;SDS011;4552;43.422;24.592;2023-12-29T23:49:16;7.87;;;5.60;;
9034;SDS011;4552;43.422;24.592;2023-12-29T23:51:43;10.53;;;5.90;;
9034;SDS011;4552;43.422;24.592;2023-12-29T23:54:10;9.63;;;6.00;;
9034;SDS011;4552;43.422;24.592;2023-12-29T23:56:37;9.10;;;6.20;;
9034;SDS011;4552;43.422;24.592;2023-12-29T23:59:04;12.53;;;5.27;;
